Time;durP1;ratioP1;P1;durP2;ratioP2;P2;SDS_P1;SDS_P2;PMS_P1;PMS_P2;Temp;Humidity;BMP_temperature;BMP_pressure;BME280_temperature;BME280_humidity;BME280_pressure;Samples;Min_cycle;Max_cycle;Signal;HPM_P1;HPM_P2
2023/06/21 00:00:14;;;;;;;14.48;13.07;;;22.30;99.90;;;;;;4877309;29;20650;-81
2023/06/21 00:02:43;;;;;;;14.70;13.10;;;22.30;99.90;;;;;;4879954;29;20207;-82
2023/06/21 00:05:09;;;;;;;16.38;12.93;;;22.30;99.90;;;;;;4877954;29;20184;-83
2023/06/21 00:07:35;;;;;;;13.82;12.45;;;22.40;99.90;;;;;;4879448;29;20283;-82
2023/06/21 00:10:01;;;;;;;13.88;12.57;;;22.30;99.90;;;;;;4880059;29;20729;-82
2023/06/21 00:12:28;;;;;;;15.63;14.02;;;22.30;99.90;;;;;;4878264;29;20215;-82
2023/06/21 00:14:54;;;;;;;15.55;13.27;;;22.30;99.90;;;;;;4880080;29;20605;-82
2023/06/21 00:17:19;;;;;;;13.38;11.98;;;22.30;99.90;;;;;;4880086;29;20186;-82
2023/06/21 00:19:47;;;;;;;12.75;11.55;;;22.30;99.90;;;;;;4866249;29;20215;-82
2023/06/21 00:22:14;;;;;;;12.00;10.90;;;22.20;99.90;;;;;;4861412;29;20180;-82
2023/06/21 00:24:40;;;;;;;16.13;11.43;;;22.20;99.90;;;;;;4861410;29;20252;-82
2023/06/21 00:27:06;;;;;;;12.15;10.98;;;22.10;99.90;;;;;;4861436;29;20259;-81
2023/06/21 00:29:31;;;;;;;10.60;9.60;;;22.10;99.90;;;;;;4876152;29;20646;-81
2023/06/21 00:31:58;;;;;;;11.32;9.70;;;22.10;99.90;;;;;;4879836;29;20180;-83
2023/06/21 00:34:23;;;;;;;10.70;9.52;;;22.00;99.90;;;;;;4878626;29;20191;-82
2023/06/21 00:36:49;;;;;;;10.45;8.30;;;22.00;99.90;;;;;;4877855;29;20187;-83
2023/06/21 00:39:15;;;;;;;9.65;8.50;;;22.00;99.90;;;;;;4873701;29;20275;-82
2023/06/21 00:41:41;;;;;;;10.00;8.25;;;21.90;99.90;;;;;;4889602;29;20288;-82
2023/06/21 00:44:08;;;;;;;8.30;7.50;;;21.90;99.90;;;;;;4877183;29;20186;-81
2023/06/21 00:46:34;;;;;;;8.38;7.38;;;21.90;99.90;;;;;;4877483;29;20219;-81
2023/06/21 00:49:00;;;;;;;8.18;7.38;;;21.80;99.90;;;;;;4876488;29;20180;-82
2023/06/21 00:51:26;;;;;;;8.82;7.93;;;21.90;99.90;;;;;;4878499;29;20180;-83
2023/06/21 00:53:52;;;;;;;8.32;7.28;;;21.90;99.90;;;;;;4876550;29;20286;-81
2023/06/21 00:56:17;;;;;;;10.75;9.75;;;21.80;99.90;;;;;;4877885;29;20196;-82
2023/06/21 00:58:43;;;;;;;8.70;7.90;;;21.70;99.90;;;;;;4878263;29;20271;-82
2023/06/21 01:01:09;;;;;;;11.13;8.32;;;21.70;99.90;;;;;;4878772;29;20212;-83
2023/06/21 01:03:36;;;;;;;9.27;7.68;;;21.70;99.90;;;;;;4878004;29;20504;-85
2023/06/21 01:06:21;;;;;;;7.80;7.05;;;21.60;99.90;;;;;;4879345;29;20188;-84
2023/06/21 01:09:25;;;;;;;7.97;7.18;;;21.60;99.90;;;;;;4880411;29;20194;-83
2023/06/21 01:12:19;;;;;;;11.68;6.20;;;21.60;99.90;;;;;;4864804;29;20183;-83
2023/06/21 01:15:19;;;;;;;9.20;5.93;;;21.60;99.90;;;;;;4879269;29;20229;-81
2023/06/21 01:17:48;;;;;;;6.22;5.60;;;21.50;99.90;;;;;;4878985;29;20187;-83
2023/06/21 01:20:23;;;;;;;7.20;6.07;;;21.50;99.90;;;;;;4880785;29;20220;-82
2023/06/21 01:23:01;;;;;;;7.32;5.47;;;21.50;99.90;;;;;;4881947;29;20184;-82
2023/06/21 01:25:32;;;;;;;6.90;5.75;;;21.40;99.90;;;;;;4880576;29;20188;-82
2023/06/21 01:28:23;;;;;;;7.43;5.20;;;21.40;99.90;;;;;;4882249;29;20188;-83
2023/06/21 01:30:50;;;;;;;6.32;5.70;;;21.40;99.90;;;;;;4880762;29;20204;-83
2023/06/21 01:33:19;;;;;;;5.90;5.30;;;21.40;99.90;;;;;;4882443;29;20184;-83
2023/06/21 01:35:45;;;;;;;6.95;5.60;;;21.40;99.90;;;;;;4882585;29;20612;-83
2023/06/21 01:38:12;;;;;;;7.32;5.57;;;21.40;99.90;;;;;;4880425;29;20192;-82
2023/06/21 01:40:38;;;;;;;5.43;4.93;;;21.40;99.90;;;;;;4881046;29;20219;-83
2023/06/21 01:43:05;;;;;;;7.57;5.50;;;21.30;99.90;;;;;;4881020;29;20302;-84
2023/06/21 01:45:32;;;;;;;6.15;5.55;;;21.30;99.90;;;;;;4882237;29;20184;-85
2023/06/21 01:47:59;;;;;;;10.18;5.70;;;21.30;99.90;;;;;;4880132;29;20187;-85
2023/06/21 01:50:26;;;;;;;7.35;5.40;;;21.30;99.90;;;;;;4880453;29;20196;-84
2023/06/21 01:52:52;;;;;;;9.30;5.40;;;21.30;99.90;;;;;;4879790;29;20187;-84
2023/06/21 01:55:19;;;;;;;7.72;5.90;;;21.20;99.90;;;;;;4880728;29;20207;-84
2023/06/21 01:57:45;;;;;;;8.98;5.75;;;21.10;99.90;;;;;;4880842;29;20275;-83
2023/06/21 02:00:16;;;;;;;8.23;5.30;;;21.10;99.90;;;;;;4881165;29;20655;-85
2023/06/21 02:02:47;;;;;;;9.25;5.50;;;21.10;99.90;;;;;;4877494;29;20557;-85
2023/06/21 02:05:15;;;;;;;6.65;5.88;;;21.10;99.90;;;;;;4879752;29;20287;-86
2023/06/21 02:07:42;;;;;;;10.32;6.60;;;21.10;99.90;;;;;;4880329;29;20183;-86
2023/06/21 02:10:09;;;;;;;8.93;5.82;;;21.00;99.90;;;;;;4867748;29;20580;-84
2023/06/21 02:12:35;;;;;;;13.23;6.05;;;21.00;99.90;;;;;;4862545;29;20509;-84
2023/06/21 02:15:00;;;;;;;12.60;6.95;;;20.90;99.90;;;;;;4878196;29;20180;-86
2023/06/21 02:17:28;;;;;;;10.30;7.22;;;20.70;99.90;;;;;;4878627;29;20683;-85
2023/06/21 02:19:55;;;;;;;9.25;7.35;;;20.60;99.90;;;;;;4861848;29;20239;-83
2023/06/21 02:22:21;;;;;;;11.25;7.07;;;20.50;99.90;;;;;;4863218;29;20217;-84
2023/06/21 02:24:46;;;;;;;11.65;7.20;;;20.40;99.90;;;;;;4881018;29;20176;-83
2023/06/21 02:27:12;;;;;;;12.75;7.53;;;20.40;99.90;;;;;;4880803;29;20187;-84
2023/06/21 02:29:38;;;;;;;10.15;6.55;;;20.40;99.90;;;;;;4880757;29;20215;-84
2023/06/21 02:32:04;;;;;;;14.50;7.32;;;20.50;99.90;;;;;;4880824;29;20270;-85
2023/06/21 02:34:29;;;;;;;15.57;7.50;;;20.50;99.90;;;;;;4880255;29;20195;-86
2023/06/21 02:36:55;;;;;;;12.88;6.43;;;20.50;99.90;;;;;;4881781;29;20188;-85
2023/06/21 02:39:22;;;;;;;8.85;6.40;;;20.50;99.90;;;;;;4881751;29;20563;-85
2023/06/21 02:41:50;;;;;;;9.57;6.32;;;20.50;99.90;;;;;;4881715;29;20184;-85
2023/06/21 02:44:16;;;;;;;13.52;6.57;;;20.50;99.90;;;;;;4881936;29;20260;-85
2023/06/21 02:46:41;;;;;;;11.77;7.35;;;20.50;99.90;;;;;;4881642;29;20221;-84
2023/06/21 02:49:07;;;;;;;8.43;6.35;;;20.30;99.90;;;;;;4874596;29;20612;-84
2023/06/21 02:51:32;;;;;;;11.82;6.72;;;20.40;99.90;;;;;;4879722;29;20721;-84
2023/06/21 02:53:58;;;;;;;12.73;6.57;;;20.40;99.90;;;;;;4880499;29;20196;-84
2023/06/21 02:56:24;;;;;;;12.95;6.50;;;20.40;99.90;;;;;;4880922;29;20191;-84
2023/06/21 02:58:50;;;;;;;10.40;6.20;;;20.40;99.90;;;;;;5292626;23;20660;-86
2023/06/21 03:01:16;;;;;;;9.23;6.13;;;20.40;99.90;;;;;;4852171;29;20216;-88
2023/06/21 03:03:44;;;;;;;10.80;6.10;;;20.40;99.90;;;;;;4863635;29;20176;-88
2023/06/21 03:06:11;;;;;;;8.38;5.95;;;20.40;99.90;;;;;;4862107;29;20203;-91
2023/06/21 03:08:38;;;;;;;9.05;5.82;;;20.30;99.90;;;;;;4861429;29;20683;-91
2023/06/21 03:11:08;;;;;;;6.85;5.82;;;20.30;99.90;;;;;;4862408;29;20185;-90
2023/06/21 03:13:36;;;;;;;9.68;5.55;;;20.30;99.90;;;;;;4861888;29;20189;-90
2023/06/21 03:16:02;;;;;;;9.90;5.95;;;20.30;99.90;;;;;;4862137;29;20193;-91
2023/06/21 03:18:28;;;;;;;7.55;5.65;;;20.30;99.90;;;;;;4861809;29;20254;-89
2023/06/21 03:20:54;;;;;;;7.03;5.97;;;20.30;99.90;;;;;;4861528;29;20975;-89
2023/06/21 03:23:20;;;;;;;8.88;6.50;;;20.30;99.90;;;;;;4861506;29;20203;-90
2023/06/21 03:25:45;;;;;;;9.13;6.07;;;20.30;99.90;;;;;;4862191;29;20193;-89
2023/06/21 03:28:11;;;;;;;9.52;6.35;;;20.30;99.90;;;;;;4859643;29;20654;-86
2023/06/21 03:30:37;;;;;;;8.77;6.28;;;20.30;99.90;;;;;;4852980;29;20256;-89
2023/06/21 03:33:03;;;;;;;9.63;6.20;;;20.30;99.90;;;;;;4861583;29;20197;-88
2023/06/21 03:35:29;;;;;;;8.20;6.22;;;20.30;99.90;;;;;;4862367;29;20324;-89
2023/06/21 03:37:55;;;;;;;7.03;5.95;;;20.30;99.90;;;;;;4862115;29;20188;-90
2023/06/21 03:40:21;;;;;;;6.95;6.25;;;20.40;99.90;;;;;;4860700;29;20283;-90
2023/06/21 03:42:47;;;;;;;8.93;5.63;;;20.50;99.90;;;;;;4861792;29;20185;-89
2023/06/21 03:45:13;;;;;;;10.65;5.93;;;20.50;99.90;;;;;;4862256;29;20512;-90
2023/06/21 03:47:40;;;;;;;9.90;5.93;;;20.60;99.90;;;;;;4862896;29;20192;-90
2023/06/21 03:50:07;;;;;;;10.10;5.60;;;20.50;99.90;;;;;;4862657;29;20180;-89
2023/06/21 03:52:33;;;;;;;8.30;5.95;;;20.60;99.90;;;;;;4860742;29;20188;-89
2023/06/21 03:54:59;;;;;;;9.38;6.10;;;20.60;99.90;;;;;;4860928;29;20188;-90
2023/06/21 03:57:24;;;;;;;7.93;5.55;;;20.70;99.90;;;;;;4861434;29;20195;-90
2023/06/21 03:59:53;;;;;;;8.52;5.78;;;20.70;99.90;;;;;;4860823;29;20236;-89
2023/06/21 04:02:21;;;;;;;11.25;6.13;;;20.70;99.90;;;;;;4858450;29;20218;-89
2023/06/21 04:04:48;;;;;;;6.18;5.25;;;20.70;99.90;;;;;;4860823;29;20643;-90
2023/06/21 04:07:13;;;;;;;7.20;5.95;;;20.60;99.90;;;;;;4862273;29;20691;-90
2023/06/21 04:09:39;;;;;;;11.75;5.60;;;20.60;99.90;;;;;;4861264;29;20193;-89
2023/06/21 04:12:05;;;;;;;7.30;5.45;;;20.60;99.90;;;;;;4861535;29;20188;-89
2023/06/21 04:14:31;;;;;;;9.73;5.95;;;20.70;99.90;;;;;;4862333;29;20184;-90
2023/06/21 04:16:57;;;;;;;9.82;5.28;;;20.60;99.90;;;;;;4861445;29;20387;-89
2023/06/21 04:19:22;;;;;;;10.18;6.22;;;20.70;99.90;;;;;;4861399;29;20246;-89
2023/06/21 04:21:51;;;;;;;8.23;6.15;;;20.70;99.90;;;;;;4862644;29;20188;-89
2023/06/21 04:24:17;;;;;;;6.93;5.70;;;20.70;99.90;;;;;;4861343;29;20195;-89
2023/06/21 04:26:42;;;;;;;9.45;6.15;;;20.80;99.90;;;;;;4862586;29;20176;-90
2023/06/21 04:29:08;;;;;;;9.35;6.28;;;20.80;99.90;;;;;;4861128;29;20215;-88
2023/06/21 04:31:37;;;;;;;8.80;6.65;;;20.80;99.90;;;;;;4861325;29;20189;-89
2023/06/21 04:34:04;;;;;;;11.13;5.82;;;20.90;99.90;;;;;;4862568;29;20217;-90
2023/06/21 04:36:30;;;;;;;9.93;6.13;;;20.80;99.90;;;;;;4861119;29;20184;-89
2023/06/21 04:38:55;;;;;;;10.02;5.78;;;20.80;99.90;;;;;;4861525;29;20189;-89
2023/06/21 04:41:23;;;;;;;9.40;6.28;;;20.80;99.90;;;;;;4861803;29;20607;-89
2023/06/21 04:43:49;;;;;;;12.55;6.15;;;20.90;99.90;;;;;;4864559;29;20279;-88
2023/06/21 04:46:17;;;;;;;9.18;6.10;;;21.00;99.90;;;;;;4865882;29;20343;-88
2023/06/21 04:48:47;;;;;;;10.30;6.13;;;21.10;99.90;;;;;;4865912;29;20185;-88
2023/06/21 04:51:15;;;;;;;10.45;6.03;;;21.20;99.90;;;;;;4864404;29;20620;-89
2023/06/21 04:53:48;;;;;;;7.72;6.35;;;21.20;99.90;;;;;;4863212;29;20591;-89
2023/06/21 04:56:14;;;;;;;8.45;6.35;;;21.20;99.90;;;;;;4864222;29;20184;-88
2023/06/21 04:58:40;;;;;;;13.00;6.72;;;21.00;99.90;;;;;;4864195;29;20238;-88
2023/06/21 05:01:12;;;;;;;8.95;6.60;;;21.00;99.90;;;;;;4859590;29;20240;-88
2023/06/21 05:03:37;;;;;;;12.23;6.53;;;21.00;99.90;;;;;;4849042;29;20181;-90
2023/06/21 05:06:03;;;;;;;8.48;6.32;;;21.10;99.90;;;;;;4864272;29;20189;-90
2023/06/21 05:08:29;;;;;;;8.00;6.38;;;21.10;99.90;;;;;;4864174;29;20185;-89
2023/06/21 05:10:55;;;;;;;13.20;7.13;;;21.20;99.90;;;;;;4862944;29;20546;-90
2023/06/21 05:13:20;;;;;;;6.32;5.72;;;21.30;99.90;;;;;;4864553;29;20268;-88
2023/06/21 05:15:46;;;;;;;12.40;7.30;;;21.30;99.90;;;;;;4864293;29;20203;-90
2023/06/21 05:18:12;;;;;;;8.13;6.80;;;21.30;99.90;;;;;;4863140;29;20193;-88
2023/06/21 05:20:38;;;;;;;9.10;6.70;;;21.40;99.90;;;;;;4863859;29;20213;-89
2023/06/21 05:23:04;;;;;;;9.25;7.00;;;21.40;99.90;;;;;;4863997;29;20942;-88
2023/06/21 05:25:30;;;;;;;10.68;7.22;;;21.40;99.90;;;;;;4864472;29;20189;-89
2023/06/21 05:27:56;;;;;;;7.78;6.20;;;21.40;99.90;;;;;;4863970;29;20191;-89
2023/06/21 05:30:22;;;;;;;9.45;6.50;;;21.40;99.90;;;;;;4863953;29;20195;-88
2023/06/21 05:32:49;;;;;;;9.65;6.55;;;21.40;99.90;;;;;;4862206;29;20267;-90
2023/06/21 05:35:15;;;;;;;12.30;7.63;;;21.50;99.90;;;;;;4860295;29;20265;-88
2023/06/21 05:37:41;;;;;;;9.43;6.93;;;21.50;99.90;;;;;;4861192;29;20577;-89
2023/06/21 05:40:08;;;;;;;8.27;6.78;;;21.60;99.90;;;;;;4863994;29;20217;-89
2023/06/21 05:42:35;;;;;;;8.13;6.72;;;21.60;99.90;;;;;;4846370;29;20192;-90
2023/06/21 05:45:00;;;;;;;11.93;7.35;;;21.70;99.90;;;;;;4845466;29;20268;-91
2023/06/21 05:47:26;;;;;;;8.73;7.38;;;21.80;99.90;;;;;;4857496;29;20231;-90
2023/06/21 05:49:52;;;;;;;8.80;6.78;;;21.80;99.90;;;;;;4864197;29;20188;-88
2023/06/21 05:52:18;;;;;;;10.70;6.93;;;21.90;99.90;;;;;;4863690;29;20207;-89
2023/06/21 05:54:44;;;;;;;7.68;6.97;;;21.90;99.90;;;;;;4864107;29;20525;-88
2023/06/21 05:57:11;;;;;;;11.07;7.38;;;22.00;99.90;;;;;;4863964;29;20196;-90
2023/06/21 05:59:37;;;;;;;8.07;7.28;;;22.00;99.90;;;;;;4863105;29;20241;-90
2023/06/21 06:02:05;;;;;;;10.07;6.43;;;22.00;99.90;;;;;;4859818;29;20193;-89
2023/06/21 06:04:31;;;;;;;12.73;7.47;;;22.00;99.90;;;;;;4845248;29;20291;-89
2023/06/21 06:06:56;;;;;;;9.15;7.25;;;22.10;99.90;;;;;;4845206;29;20208;-90
2023/06/21 06:09:23;;;;;;;10.73;6.80;;;22.00;99.90;;;;;;4852162;29;20279;-89
2023/06/21 06:11:51;;;;;;;9.18;6.72;;;22.00;99.90;;;;;;4863494;29;20185;-89
2023/06/21 06:14:17;;;;;;;9.90;7.22;;;22.10;99.90;;;;;;4864413;29;20213;-89
2023/06/21 06:16:42;;;;;;;9.57;6.57;;;22.20;99.90;;;;;;4863753;29;20189;-90
2023/06/21 06:19:08;;;;;;;8.02;7.22;;;22.20;99.90;;;;;;4863463;29;20189;-89
2023/06/21 06:21:36;;;;;;;8.25;6.10;;;22.30;99.90;;;;;;4864306;29;21082;-88
2023/06/21 06:24:03;;;;;;;7.55;5.95;;;22.30;99.90;;;;;;4864603;29;20169;-90
2023/06/21 06:26:28;;;;;;;13.50;6.53;;;22.30;99.90;;;;;;4862829;29;20288;-94
2023/06/21 06:28:55;;;;;;;6.47;5.78;;;22.20;99.90;;;;;;4862709;29;20226;-90
2023/06/21 06:31:25;;;;;;;9.25;6.00;;;22.20;99.90;;;;;;4862545;29;20200;-91
2023/06/21 06:33:51;;;;;;;9.18;6.18;;;22.10;99.90;;;;;;4859266;29;20192;-91
2023/06/21 06:36:17;;;;;;;7.18;6.20;;;22.10;99.90;;;;;;4845831;29;20256;-90
2023/06/21 06:38:46;;;;;;;7.20;6.07;;;22.20;99.90;;;;;;4861617;29;20186;-90
2023/06/21 06:41:12;;;;;;;9.13;5.82;;;22.30;99.90;;;;;;4863111;29;20224;-91
2023/06/21 06:43:37;;;;;;;7.15;5.70;;;22.30;99.90;;;;;;4862968;29;20177;-90
2023/06/21 06:46:03;;;;;;;5.93;5.32;;;22.30;99.90;;;;;;4862067;29;20223;-90
2023/06/21 06:48:29;;;;;;;5.70;5.07;;;22.30;99.90;;;;;;4862947;29;20185;-91
2023/06/21 06:50:54;;;;;;;7.35;5.10;;;22.40;99.90;;;;;;4863570;29;20216;-88
2023/06/21 06:53:22;;;;;;;7.90;5.47;;;22.50;99.90;;;;;;4862856;29;20181;-90
2023/06/21 06:55:49;;;;;;;6.13;4.68;;;22.60;99.90;;;;;;4860533;29;20195;-90
2023/06/21 06:58:15;;;;;;;5.95;4.65;;;22.80;99.90;;;;;;4863078;29;20239;-88
2023/06/21 07:00:41;;;;;;;7.63;4.82;;;23.00;99.90;;;;;;4859060;29;20475;-90
2023/06/21 07:03:06;;;;;;;6.28;4.53;;;23.10;99.90;;;;;;4845087;29;20177;-90
2023/06/21 07:05:35;;;;;;;8.77;4.10;;;23.30;99.90;;;;;;4861318;29;20251;-89
2023/06/21 07:08:03;;;;;;;7.60;4.93;;;23.40;99.90;;;;;;4863766;29;20177;-90
2023/06/21 07:10:28;;;;;;;8.10;4.63;;;23.40;99.90;;;;;;4862071;29;20543;-89
2023/06/21 07:13:02;;;;;;;5.38;4.60;;;23.50;99.90;;;;;;4862671;29;20185;-91
2023/06/21 07:15:28;;;;;;;6.40;4.53;;;23.40;99.90;;;;;;4858920;29;20543;-89
2023/06/21 07:17:54;;;;;;;5.05;4.10;;;23.30;99.90;;;;;;4862144;29;20204;-91
2023/06/21 07:20:20;;;;;;;7.95;3.80;;;23.50;99.90;;;;;;4863078;29;20337;-90
2023/06/21 07:22:46;;;;;;;5.20;3.50;;;23.70;99.90;;;;;;4862278;29;20224;-89
2023/06/21 07:25:12;;;;;;;5.03;4.15;;;23.80;99.90;;;;;;4861917;29;20180;-90
2023/06/21 07:27:49;;;;;;;5.65;3.80;;;23.90;99.90;;;;;;5072477;27;20559;-87
2023/06/21 07:30:16;;;;;;;5.05;3.78;;;23.80;99.90;;;;;;5069948;28;20254;-86
2023/06/21 07:32:42;;;;;;;5.80;4.65;;;23.70;99.90;;;;;;5071925;28;20204;-86
2023/06/21 07:35:08;;;;;;;9.32;4.88;;;23.70;99.90;;;;;;5072307;28;20166;-86
2023/06/21 07:37:34;;;;;;;5.00;4.40;;;23.70;99.90;;;;;;5070635;28;20209;-85
2023/06/21 07:40:00;;;;;;;9.63;4.10;;;23.80;99.90;;;;;;5072096;28;20283;-86
2023/06/21 07:42:26;;;;;;;4.93;3.78;;;23.90;99.90;;;;;;5070970;28;20260;-86
2023/06/21 07:44:53;;;;;;;7.07;4.32;;;23.90;99.90;;;;;;5069211;28;20264;-88
2023/06/21 07:47:19;;;;;;;6.53;3.85;;;23.90;99.90;;;;;;5065579;28;20223;-89
2023/06/21 07:49:45;;;;;;;10.20;4.07;;;24.00;99.90;;;;;;5069922;28;20272;-87
2023/06/21 07:52:12;;;;;;;5.25;3.72;;;24.20;99.90;;;;;;5071694;28;20208;-88
2023/06/21 07:54:38;;;;;;;6.35;3.75;;;24.20;99.90;;;;;;5070575;28;20169;-88
2023/06/21 07:57:04;;;;;;;6.20;3.80;;;24.30;99.90;;;;;;5071762;28;20227;-88
2023/06/21 07:59:30;;;;;;;5.88;4.55;;;24.30;99.90;;;;;;5051125;28;20182;-87
2023/06/21 08:01:56;;;;;;;5.10;3.70;;;24.20;99.90;;;;;;5069436;28;20185;-92
2023/06/21 08:04:22;;;;;;;6.43;4.03;;;24.40;99.90;;;;;;5070616;28;20169;-91
2023/06/21 08:06:48;;;;;;;6.07;3.50;;;24.40;99.90;;;;;;5070054;28;20574;-89
2023/06/21 08:09:13;;;;;;;6.68;3.33;;;24.40;99.90;;;;;;5070354;28;20534;-89
2023/06/21 08:11:39;;;;;;;5.65;4.22;;;24.40;99.90;;;;;;5070559;28;20280;-91
2023/06/21 08:14:05;;;;;;;4.45;4.05;;;24.30;99.90;;;;;;5070026;28;20181;-91
2023/06/21 08:16:31;;;;;;;4.80;3.80;;;24.20;99.90;;;;;;5050902;28;20297;-90
2023/06/21 08:18:56;;;;;;;4.25;3.60;;;24.10;99.90;;;;;;5049991;28;20174;-88
2023/06/21 08:21:22;;;;;;;5.57;3.38;;;24.30;99.90;;;;;;5050013;28;20177;-89
2023/06/21 08:23:49;;;;;;;4.60;3.38;;;24.40;99.90;;;;;;5049875;28;20178;-89
2023/06/21 08:26:14;;;;;;;6.63;3.80;;;24.50;99.90;;;;;;5049719;28;20634;-87
2023/06/21 08:28:40;;;;;;;6.53;3.20;;;24.80;99.90;;;;;;5050525;28;20182;-89
2023/06/21 08:31:06;;;;;;;3.80;3.08;;;24.90;99.90;;;;;;5049320;28;20520;-90
2023/06/21 08:33:34;;;;;;;9.55;3.50;;;24.90;99.90;;;;;;5070104;28;20268;-89
2023/06/21 08:35:59;;;;;;;3.88;3.00;;;25.00;99.90;;;;;;5069696;28;20324;-88
2023/06/21 08:38:25;;;;;;;6.40;3.45;;;24.90;99.90;;;;;;5061356;28;20679;-86
2023/06/21 08:40:51;;;;;;;4.25;3.53;;;25.00;99.90;;;;;;5056801;28;20190;-87
2023/06/21 08:43:17;;;;;;;10.20;3.67;;;25.10;99.90;;;;;;5057097;28;20261;-87
2023/06/21 08:45:44;;;;;;;8.38;3.72;;;25.10;99.90;;;;;;5055845;28;20277;-88
2023/06/21 08:48:10;;;;;;;4.70;4.10;;;25.20;99.90;;;;;;5056423;28;20604;-87
2023/06/21 08:50:38;;;;;;;6.57;4.18;;;25.30;99.90;;;;;;5056307;28;20174;-88
2023/06/21 08:53:07;;;;;;;8.75;3.78;;;25.20;99.90;;;;;;5055936;28;20296;-86
2023/06/21 08:55:35;;;;;;;8.25;3.75;;;25.40;99.90;;;;;;5056114;28;20180;-87
2023/06/21 08:58:06;;;;;;;5.22;3.55;;;25.30;99.90;;;;;;5055806;28;20232;-87
2023/06/21 09:00:43;;;;;;;8.35;3.20;;;25.40;99.90;;;;;;5055569;28;20166;-87
2023/06/21 09:03:19;;;;;;;4.93;3.50;;;25.70;99.90;;;;;;5057111;28;20592;-89
2023/06/21 09:06:00;;;;;;;3.92;3.00;;;25.90;99.90;;;;;;5050294;28;20213;-89
2023/06/21 09:08:27;;;;;;;4.60;3.00;;;26.00;99.90;;;;;;5037037;28;20636;-86
2023/06/21 09:10:53;;;;;;;5.00;3.28;;;26.10;99.90;;;;;;5054818;28;20181;-85
2023/06/21 09:13:22;;;;;;;5.72;3.03;;;26.30;99.90;;;;;;5054929;28;20636;-85
2023/06/21 09:15:50;;;;;;;7.63;3.20;;;26.40;99.90;;;;;;5055234;28;20178;-86
2023/06/21 09:18:19;;;;;;;6.05;3.20;;;26.40;99.90;;;;;;5055167;28;20261;-86
2023/06/21 09:20:48;;;;;;;6.47;2.95;;;26.30;99.90;;;;;;5045819;28;20200;-89
2023/06/21 09:23:13;;;;;;;3.30;3.00;;;26.30;99.90;;;;;;5039573;28;20178;-87
2023/06/21 09:25:39;;;;;;;5.57;3.08;;;26.30;99.90;;;;;;5038166;28;20649;-89
2023/06/21 09:28:05;;;;;;;7.68;3.08;;;26.40;99.90;;;;;;5055630;28;20196;-87
2023/06/21 09:30:31;;;;;;;5.15;3.00;;;26.40;99.90;;;;;;5055226;28;20197;-87
2023/06/21 09:32:57;;;;;;;4.35;3.22;;;26.50;99.90;;;;;;5054970;28;20186;-87
2023/06/21 09:35:24;;;;;;;3.63;3.10;;;26.40;99.90;;;;;;5037364;28;20186;-86
2023/06/21 09:37:50;;;;;;;7.80;3.50;;;26.40;99.90;;;;;;5036659;28;20190;-86
2023/06/21 09:40:16;;;;;;;7.65;3.45;;;26.30;99.90;;;;;;5049641;28;20627;-89
2023/06/21 09:42:44;;;;;;;7.15;3.60;;;26.30;99.90;;;;;;5055123;28;20201;-88
2023/06/21 09:45:17;;;;;;;4.53;3.38;;;26.20;99.90;;;;;;5055898;28;20185;-87
2023/06/21 09:47:43;;;;;;;5.32;2.90;;;26.40;99.90;;;;;;5047468;28;20210;-88
2023/06/21 09:50:10;;;;;;;4.40;3.60;;;26.50;99.90;;;;;;5067018;28;20240;-88
2023/06/21 09:52:36;;;;;;;5.15;3.33;;;26.70;99.90;;;;;;5068588;28;20217;-88
2023/06/21 09:55:03;;;;;;;4.10;3.17;;;26.80;99.90;;;;;;5034901;28;20186;-87
2023/06/21 09:57:30;;;;;;;4.10;3.22;;;26.80;99.90;;;;;;5035293;28;20178;-87
2023/06/21 09:59:57;;;;;;;4.47;2.70;;;26.80;99.90;;;;;;5035389;28;20174;-88
2023/06/21 10:02:24;;;;;;;3.28;2.97;;;26.80;99.90;;;;;;5034498;28;20177;-86
2023/06/21 10:04:54;;;;;;;4.97;3.45;;;26.60;99.90;;;;;;5036046;28;20174;-87
2023/06/21 10:07:24;;;;;;;6.60;3.08;;;26.70;99.90;;;;;;5039096;28;20222;-87
2023/06/21 10:09:50;;;;;;;4.55;3.35;;;26.70;99.90;;;;;;5046221;28;20190;-90
2023/06/21 10:12:16;;;;;;;4.00;3.20;;;26.80;99.90;;;;;;5054425;28;20188;-90
2023/06/21 10:14:43;;;;;;;4.90;3.33;;;26.80;99.90;;;;;;5053529;28;20184;-87
2023/06/21 10:17:10;;;;;;;7.30;3.33;;;26.90;99.90;;;;;;5054596;28;20182;-89
2023/06/21 10:19:36;;;;;;;5.25;3.20;;;26.90;99.90;;;;;;5053836;28;20212;-89
2023/06/21 10:22:17;;;;;;;4.60;2.95;;;27.10;99.90;;;;;;5054473;28;20209;-88
2023/06/21 10:24:50;;;;;;;3.97;3.50;;;27.20;99.90;;;;;;5054687;28;20181;-89
2023/06/21 10:27:17;;;;;;;4.18;3.20;;;27.30;99.90;;;;;;5054460;28;20679;-88
2023/06/21 10:29:48;;;;;;;3.85;3.35;;;27.20;99.90;;;;;;5053472;28;20335;-89
2023/06/21 10:32:15;;;;;;;5.47;3.70;;;27.00;99.90;;;;;;5054372;28;20311;-89
2023/06/21 10:35:04;;;;;;;5.32;3.47;;;26.90;99.90;;;;;;5054212;28;20268;-90
2023/06/21 10:37:51;;;;;;;6.60;3.20;;;27.00;99.90;;;;;;5047703;28;20616;-87
2023/06/21 10:40:18;;;;;;;5.38;3.17;;;26.90;99.90;;;;;;5053319;28;20185;-87
2023/06/21 10:42:44;;;;;;;6.05;3.45;;;26.80;99.90;;;;;;5054157;28;20210;-88
2023/06/21 10:45:11;;;;;;;3.85;3.35;;;26.80;99.90;;;;;;5041693;28;20190;-89
2023/06/21 10:47:38;;;;;;;3.70;3.40;;;27.00;99.90;;;;;;5033909;28;20297;-88
2023/06/21 10:50:05;;;;;;;5.32;3.63;;;27.10;99.90;;;;;;5047321;28;20185;-88
2023/06/21 10:52:31;;;;;;;5.13;3.45;;;27.10;99.90;;;;;;5054835;28;20201;-87
2023/06/21 10:55:03;;;;;;;5.32;3.80;;;27.00;99.70;;;;;;5052761;28;20582;-90
2023/06/21 10:57:31;;;;;;;6.97;3.80;;;26.90;99.90;;;;;;5066998;28;20197;-87
2023/06/21 11:00:01;;;;;;;9.50;3.10;;;26.80;99.90;;;;;;5034596;28;20167;-88
2023/06/21 11:02:27;;;;;;;8.25;3.15;;;26.90;99.90;;;;;;5081109;28;20189;-93
2023/06/21 11:05:14;;;;;;;4.55;3.90;;;27.10;99.00;;;;;;5054350;28;20182;-89
2023/06/21 11:08:04;;;;;;;5.28;3.65;;;27.20;99.70;;;;;;5053728;28;20221;-90
2023/06/21 11:10:42;;;;;;;4.53;3.50;;;27.30;99.90;;;;;;5044584;28;20186;-88
2023/06/21 11:13:09;;;;;;;3.63;3.13;;;27.30;98.30;;;;;;5033490;28;20213;-89
2023/06/21 11:15:41;;;;;;;3.95;3.47;;;27.10;98.40;;;;;;5073096;28;20490;-89
2023/06/21 11:18:09;;;;;;;4.18;3.38;;;27.10;99.20;;;;;;5052233;28;20197;-89
2023/06/21 11:20:48;;;;;;;5.10;3.38;;;27.20;98.70;;;;;;5054345;28;20639;-89
2023/06/21 11:23:16;;;;;;;6.15;3.90;;;27.30;99.90;;;;;;5054128;28;20260;-87
2023/06/21 11:25:50;;;;;;;3.70;3.30;;;27.30;99.20;;;;;;5051693;28;20300;-88
2023/06/21 11:28:19;;;;;;;3.38;3.08;;;27.30;99.20;;;;;;5052248;28;20182;-90
2023/06/21 11:31:06;;;;;;;5.63;3.40;;;27.40;99.40;;;;;;5053435;28;20260;-87
2023/06/21 11:33:44;;;;;;;5.10;3.58;;;27.60;99.60;;;;;;5051313;28;20178;-90
2023/06/21 11:36:13;;;;;;;6.57;3.30;;;27.90;99.90;;;;;;5042797;28;20628;-90
2023/06/21 11:39:08;;;;;;;7.20;3.70;;;28.00;97.50;;;;;;5053261;28;20174;-92
2023/06/21 11:41:43;;;;;;;3.95;3.40;;;28.20;97.30;;;;;;5044173;28;20280;-90
2023/06/21 11:44:13;;;;;;;5.13;3.55;;;28.30;98.00;;;;;;5045256;28;20648;-90
2023/06/21 11:46:40;;;;;;;6.35;3.17;;;28.60;97.40;;;;;;5053690;28;20201;-90
2023/06/21 11:49:06;;;;;;;6.53;3.72;;;28.70;96.90;;;;;;5050833;28;20630;-91
2023/06/21 11:51:32;;;;;;;3.95;3.28;;;28.70;96.40;;;;;;5045281;28;20178;-88
2023/06/21 11:53:58;;;;;;;7.18;3.75;;;28.40;96.90;;;;;;5051653;28;20497;-87
2023/06/21 11:56:32;;;;;;;7.53;3.92;;;28.20;97.10;;;;;;5053552;28;20246;-89
2023/06/21 11:58:59;;;;;;;6.45;3.72;;;28.10;97.90;;;;;;5054323;28;20170;-90
2023/06/21 12:01:25;;;;;;;4.55;3.22;;;27.80;98.20;;;;;;5053057;28;20182;-91
2023/06/21 12:04:02;;;;;;;4.53;3.85;;;27.90;97.30;;;;;;5048616;28;20179;-89
2023/06/21 12:06:29;;;;;;;6.65;3.65;;;28.00;96.50;;;;;;5033184;28;20225;-89
2023/06/21 12:08:58;;;;;;;5.45;3.72;;;28.10;97.90;;;;;;5066529;28;20237;-92
2023/06/21 12:11:27;;;;;;;5.25;3.75;;;28.00;96.20;;;;;;5043349;28;20293;-89
2023/06/21 12:13:53;;;;;;;4.57;3.90;;;28.00;96.00;;;;;;5053865;28;20247;-94
2023/06/21 12:16:25;;;;;;;6.28;4.03;;;27.90;96.40;;;;;;5057129;28;20299;-89
2023/06/21 12:18:51;;;;;;;4.75;4.18;;;28.10;96.40;;;;;;5057135;28;20166;-89
2023/06/21 12:21:17;;;;;;;4.97;3.65;;;28.20;94.30;;;;;;5056896;28;20174;-90
2023/06/21 12:23:43;;;;;;;5.85;3.97;;;28.20;95.60;;;;;;5057641;28;20239;-92
2023/06/21 12:26:14;;;;;;;4.82;3.80;;;28.20;95.10;;;;;;5055320;28;20252;-89
2023/06/21 12:28:46;;;;;;;4.85;4.35;;;28.10;95.80;;;;;;5057790;28;20216;-90
2023/06/21 12:31:18;;;;;;;5.32;4.30;;;28.30;96.40;;;;;;5057130;28;20190;-89
2023/06/21 12:33:44;;;;;;;5.60;4.60;;;28.50;95.90;;;;;;5056178;28;20190;-95
2023/06/21 12:36:14;;;;;;;5.43;4.93;;;28.30;94.20;;;;;;5056120;28;20628;-88
2023/06/21 12:38:50;;;;;;;5.07;4.57;;;28.00;95.10;;;;;;5054483;28;20185;-90
2023/06/21 12:41:20;;;;;;;8.73;4.95;;;27.80;95.40;;;;;;5045303;28;20181;-89
2023/06/21 12:43:48;;;;;;;10.82;5.15;;;27.90;95.60;;;;;;5055401;28;20219;-89
2023/06/21 12:46:15;;;;;;;5.82;5.15;;;28.00;95.30;;;;;;5049372;28;20209;-93
2023/06/21 12:48:46;;;;;;;5.28;4.72;;;28.20;96.10;;;;;;5043716;28;20675;-91